Time;durP1;ratioP1;P1;durP2;ratioP2;P2;SDS_P1;SDS_P2;PMS_P1;PMS_P2;Temp;Humidity;BMP_temperature;BMP_pressure;BME280_temperature;BME280_humidity;BME280_pressure;Samples;Min_cycle;Max_cycle;Signal;HPM_P1;HPM_P2
2021/11/07 00:02:35;;;;;;;0.70;0.50;;;10.50;99.90;;;;;;5051642;28;21023;-71
2021/11/07 00:05:04;;;;;;;0.80;0.60;;;10.50;99.90;;;;;;5052910;28;20994;-69
2021/11/07 00:08:03;;;;;;;1.20;0.90;;;10.50;99.90;;;;;;5051735;28;20436;-69
2021/11/07 00:13:12;;;;;;;0.70;0.50;;;10.50;99.90;;;;;;5052675;28;20456;-69
2021/11/07 00:15:38;;;;;;;0.70;0.50;;;10.60;99.90;;;;;;5050922;28;20409;-70
2021/11/07 00:18:08;;;;;;;0.70;0.50;;;10.60;99.90;;;;;;5052682;28;20421;-69
2021/11/07 00:20:36;;;;;;;1.07;0.70;;;10.60;99.90;;;;;;5052670;28;20421;-69
2021/11/07 00:23:56;;;;;;;1.10;0.60;;;10.60;99.90;;;;;;5052964;28;20409;-69
2021/11/07 00:26:02;;;;;;;0.70;0.50;;;10.70;99.90;;;;;;5049165;28;20499;-69
2021/11/07 00:28:38;;;;;;;0.70;0.50;;;10.70;99.90;;;;;;5052243;28;20428;-69
2021/11/07 00:31:21;;;;;;;0.70;0.50;;;10.70;99.90;;;;;;5052186;28;20428;-69
2021/11/07 00:36:41;;;;;;;1.60;1.50;;;10.70;99.90;;;;;;5034575;28;20428;-70
2021/11/07 00:39:23;;;;;;;0.70;0.50;;;10.70;99.90;;;;;;5048765;28;20437;-69
2021/11/07 00:44:32;;;;;;;10.43;0.93;;;10.80;99.90;;;;;;5052538;28;20924;-70
2021/11/07 00:47:01;;;;;;;0.70;0.50;;;10.80;99.90;;;;;;5050784;28;20412;-70
2021/11/07 00:49:35;;;;;;;0.70;0.50;;;10.90;99.90;;;;;;5052187;28;20950;-69
2021/11/07 00:54:31;;;;;;;0.70;0.50;;;11.00;99.90;;;;;;5052388;28;20409;-70
2021/11/07 00:57:14;;;;;;;0.70;0.50;;;11.10;99.90;;;;;;5042293;28;20209;-70
2021/11/07 00:59:50;;;;;;;0.73;0.60;;;11.10;99.90;;;;;;5042942;28;20562;-70
2021/11/07 01:02:30;;;;;;;0.70;0.50;;;11.10;99.90;;;;;;5052061;28;20454;-71
2021/11/07 01:04:56;;;;;;;0.70;0.50;;;11.10;99.90;;;;;;5051559;28;20421;-69
2021/11/07 01:07:23;;;;;;;0.70;0.50;;;11.20;99.90;;;;;;5051736;28;20453;-72
2021/11/07 01:09:53;;;;;;;0.70;0.63;;;11.20;99.90;;;;;;5052013;28;20530;-69
2021/11/07 01:12:21;;;;;;;1.73;1.07;;;11.20;99.90;;;;;;5051897;28;20410;-69
2021/11/07 01:14:48;;;;;;;0.70;0.50;;;11.20;99.90;;;;;;5035242;28;20833;-70
2021/11/07 01:17:13;;;;;;;0.70;0.50;;;11.20;99.90;;;;;;5030388;28;20442;-69
2021/11/07 01:19:39;;;;;;;0.70;0.50;;;11.10;99.90;;;;;;5041280;28;20429;-70
2021/11/07 01:22:08;;;;;;;1.57;1.47;;;11.20;99.90;;;;;;5051787;28;20640;-70
2021/11/07 01:24:36;;;;;;;0.70;0.50;;;11.20;99.90;;;;;;5050615;28;20217;-69
2021/11/07 01:27:12;;;;;;;0.70;0.60;;;11.20;99.90;;;;;;5051446;28;20420;-69
2021/11/07 01:29:47;;;;;;;0.70;0.60;;;11.10;99.90;;;;;;5050686;28;20457;-69
2021/11/07 01:32:15;;;;;;;1.87;1.33;;;11.10;99.90;;;;;;5050426;28;20926;-70
2021/11/07 01:37:22;;;;;;;0.70;0.50;;;11.00;99.90;;;;;;5051618;28;20527;-69
2021/11/07 01:40:11;;;;;;;0.70;0.50;;;11.00;99.90;;;;;;5050414;28;20409;-70
2021/11/07 01:42:41;;;;;;;0.70;0.50;;;11.00;99.90;;;;;;5050407;28;20413;-71
2021/11/07 01:45:21;;;;;;;0.90;0.80;;;11.00;99.90;;;;;;5050047;28;20415;-72
2021/11/07 01:47:51;;;;;;;0.70;0.50;;;11.00;99.90;;;;;;5050715;28;20558;-70
2021/11/07 01:50:17;;;;;;;0.70;0.50;;;10.90;99.90;;;;;;5052292;28;20482;-69
2021/11/07 01:52:44;;;;;;;0.70;0.50;;;10.90;99.90;;;;;;5054109;28;20512;-70
2021/11/07 01:55:16;;;;;;;2.23;1.00;;;10.80;99.90;;;;;;5050696;28;20483;-70
2021/11/07 01:57:42;;;;;;;0.70;0.50;;;10.70;99.90;;;;;;5035418;28;20449;-70
2021/11/07 02:00:17;;;;;;;0.70;0.50;;;10.70;99.90;;;;;;5055196;28;20467;-69
2021/11/07 02:02:43;;;;;;;0.80;0.50;;;10.60;99.90;;;;;;5054825;28;20503;-69
2021/11/07 02:05:08;;;;;;;0.70;0.50;;;10.60;99.90;;;;;;5069572;28;20512;-69
2021/11/07 02:07:35;;;;;;;0.70;0.50;;;10.60;99.90;;;;;;5052239;28;20205;-71
2021/11/07 02:10:01;;;;;;;0.70;0.50;;;10.60;99.90;;;;;;5053416;28;20240;-70
2021/11/07 02:12:26;;;;;;;1.37;1.27;;;10.60;99.90;;;;;;5034003;28;20973;-69
2021/11/07 02:14:52;;;;;;;0.70;0.47;;;10.50;99.90;;;;;;5044429;28;20414;-70
2021/11/07 02:17:18;;;;;;;0.70;0.60;;;10.50;99.90;;;;;;5050293;28;20213;-70
2021/11/07 02:19:46;;;;;;;0.70;0.50;;;10.40;99.90;;;;;;5062849;28;20656;-74
2021/11/07 02:22:12;;;;;;;1.37;0.80;;;10.50;99.90;;;;;;5065919;28;20661;-71
2021/11/07 02:24:39;;;;;;;0.70;0.50;;;10.40;99.90;;;;;;5050045;28;20519;-72
2021/11/07 02:27:06;;;;;;;1.23;0.90;;;10.40;99.90;;;;;;5053162;28;20449;-72
2021/11/07 02:29:33;;;;;;;0.70;0.50;;;10.30;99.90;;;;;;5054073;28;21007;-73
2021/11/07 02:31:59;;;;;;;0.70;0.50;;;10.30;99.90;;;;;;5052964;28;20468;-73
2021/11/07 02:34:27;;;;;;;0.70;0.50;;;10.20;99.90;;;;;;5054438;28;20479;-69
2021/11/07 02:36:53;;;;;;;0.70;0.50;;;10.20;99.90;;;;;;5051630;28;20825;-70
2021/11/07 02:39:20;;;;;;;0.70;0.50;;;10.20;99.90;;;;;;5054719;28;20410;-70
2021/11/07 02:41:47;;;;;;;0.70;0.50;;;10.10;99.90;;;;;;5054645;28;20417;-69
2021/11/07 02:44:35;;;;;;;0.70;0.50;;;10.20;99.90;;;;;;5065967;28;20447;-71
2021/11/07 02:47:01;;;;;;;0.70;0.50;;;10.20;99.90;;;;;;5043657;28;20433;-72
2021/11/07 02:49:27;;;;;;;0.70;0.50;;;10.20;99.90;;;;;;5054259;28;20890;-70
2021/11/07 02:51:57;;;;;;;0.70;0.50;;;10.20;99.90;;;;;;5053486;28;20457;-71
2021/11/07 02:54:23;;;;;;;0.70;0.50;;;10.20;99.90;;;;;;5053094;28;20222;-71
2021/11/07 02:56:50;;;;;;;1.47;0.60;;;10.20;99.90;;;;;;5051464;28;20449;-72
2021/11/07 02:59:25;;;;;;;0.70;0.50;;;10.20;99.90;;;;;;5052985;28;20413;-70
2021/11/07 03:01:52;;;;;;;0.70;0.50;;;10.20;99.90;;;;;;5051946;28;20507;-71
2021/11/07 03:04:19;;;;;;;0.70;0.50;;;10.20;99.90;;;;;;5053044;28;20529;-71
2021/11/07 03:06:44;;;;;;;0.70;0.60;;;10.20;99.90;;;;;;5052979;28;20516;-71
2021/11/07 03:09:16;;;;;;;0.70;0.50;;;10.20;99.90;;;;;;5052592;28;20273;-70
2021/11/07 03:11:43;;;;;;;0.80;0.70;;;10.20;99.90;;;;;;5069539;28;20167;-70
2021/11/07 03:14:13;;;;;;;0.97;0.87;;;10.20;99.90;;;;;;5053768;28;20502;-73
2021/11/07 03:16:39;;;;;;;0.70;0.50;;;10.20;99.90;;;;;;5045611;28;20511;-69
2021/11/07 03:19:04;;;;;;;0.70;0.50;;;10.20;99.90;;;;;;5054111;28;20473;-72
2021/11/07 03:21:30;;;;;;;0.70;0.50;;;10.20;99.90;;;;;;5051151;28;20433;-70
2021/11/07 03:23:55;;;;;;;0.70;0.50;;;10.30;99.90;;;;;;5054376;28;20178;-70
2021/11/07 03:26:25;;;;;;;0.80;0.80;;;10.20;99.90;;;;;;5052922;28;20178;-73
2021/11/07 03:28:56;;;;;;;0.70;0.50;;;10.10;99.90;;;;;;5048531;28;20199;-71
2021/11/07 03:31:35;;;;;;;0.70;0.50;;;10.10;99.90;;;;;;5051629;28;20519;-70
2021/11/07 03:34:04;;;;;;;0.70;0.50;;;10.20;99.90;;;;;;5047543;28;20464;-70
2021/11/07 03:36:44;;;;;;;0.70;0.50;;;10.20;99.90;;;;;;5052355;28;20440;-71
2021/11/07 03:39:11;;;;;;;0.70;0.50;;;10.20;99.90;;;;;;5068875;28;20448;-72
2021/11/07 03:41:39;;;;;;;0.70;0.60;;;10.20;99.90;;;;;;5053203;28;20429;-72
2021/11/07 03:44:05;;;;;;;0.70;0.50;;;10.20;99.90;;;;;;5051777;28;20502;-70
2021/11/07 03:46:30;;;;;;;0.70;0.50;;;10.20;99.90;;;;;;5052496;28;20437;-72
2021/11/07 03:48:57;;;;;;;0.70;0.50;;;10.30;99.90;;;;;;5052541;28;20484;-71
2021/11/07 03:51:24;;;;;;;0.70;0.60;;;10.20;99.90;;;;;;5051162;28;20175;-71
2021/11/07 03:53:50;;;;;;;0.70;0.50;;;10.20;99.90;;;;;;5052623;28;20421;-71
2021/11/07 03:56:15;;;;;;;0.70;0.50;;;10.20;99.90;;;;;;5049357;28;20437;-72
2021/11/07 03:58:42;;;;;;;1.50;1.40;;;10.20;99.90;;;;;;5052692;28;20206;-71
2021/11/07 04:01:08;;;;;;;0.70;0.50;;;10.20;99.90;;;;;;5051247;28;20236;-70
2021/11/07 04:03:34;;;;;;;0.70;0.50;;;10.20;99.90;;;;;;5051890;28;20453;-68
2021/11/07 04:06:00;;;;;;;0.70;0.50;;;10.20;99.90;;;;;;5051044;28;20261;-72
2021/11/07 04:08:26;;;;;;;0.70;0.50;;;10.20;99.90;;;;;;5053133;28;20511;-70
2021/11/07 04:10:51;;;;;;;0.70;0.50;;;10.20;99.90;;;;;;5065827;28;20661;-71
2021/11/07 04:13:17;;;;;;;0.70;0.50;;;10.30;99.90;;;;;;5052002;28;20179;-70
2021/11/07 04:15:43;;;;;;;0.70;0.50;;;10.20;99.90;;;;;;5049814;28;20249;-71
2021/11/07 04:18:09;;;;;;;0.80;0.60;;;10.30;99.90;;;;;;5051523;28;20335;-69
2021/11/07 04:20:35;;;;;;;0.70;0.50;;;10.20;99.90;;;;;;5050786;28;20273;-69
2021/11/07 04:23:00;;;;;;;0.70;0.50;;;10.20;99.90;;;;;;5052917;28;20787;-72
2021/11/07 04:25:26;;;;;;;0.70;0.50;;;10.20;99.90;;;;;;5049069;28;20949;-70
2021/11/07 04:27:52;;;;;;;0.77;0.60;;;10.30;99.90;;;;;;5048438;28;20198;-71
2021/11/07 04:30:17;;;;;;;0.70;0.50;;;10.30;99.90;;;;;;5051103;28;20199;-73
2021/11/07 04:32:43;;;;;;;0.70;0.50;;;10.20;99.90;;;;;;5050402;28;20630;-72
2021/11/07 04:35:09;;;;;;;0.70;0.50;;;10.30;99.90;;;;;;5049879;28;20179;-73
2021/11/07 04:37:39;;;;;;;0.70;0.50;;;10.30;99.90;;;;;;5051018;28;20232;-71
2021/11/07 04:40:07;;;;;;;0.70;0.50;;;10.30;99.90;;;;;;5051768;28;20444;-71
2021/11/07 04:42:32;;;;;;;0.70;0.50;;;10.30;99.90;;;;;;5051002;28;20927;-70
2021/11/07 04:44:58;;;;;;;0.70;0.60;;;10.30;99.90;;;;;;5050590;28;20413;-72
2021/11/07 04:47:23;;;;;;;0.70;0.50;;;10.30;99.90;;;;;;5048711;28;20566;-71
2021/11/07 04:49:53;;;;;;;0.70;0.60;;;10.40;99.90;;;;;;5051524;28;20195;-71
2021/11/07 04:52:19;;;;;;;0.70;0.50;;;10.40;99.90;;;;;;5050923;28;20182;-71
2021/11/07 04:54:44;;;;;;;0.70;0.53;;;10.40;99.90;;;;;;5051274;28;20498;-72
2021/11/07 04:57:10;;;;;;;0.70;0.50;;;10.40;99.90;;;;;;5050136;28;20211;-70
2021/11/07 04:59:36;;;;;;;2.23;0.70;;;10.40;99.90;;;;;;5051077;28;20219;-70
2021/11/07 05:02:02;;;;;;;0.70;0.50;;;10.40;99.90;;;;;;5049383;28;20232;-70
2021/11/07 05:04:28;;;;;;;0.70;0.60;;;10.40;99.90;;;;;;5050588;28;21034;-72
2021/11/07 05:06:54;;;;;;;0.70;0.47;;;10.40;99.90;;;;;;5051079;28;20563;-71
2021/11/07 05:09:20;;;;;;;0.70;0.50;;;10.50;99.90;;;;;;5043527;28;20457;-70
2021/11/07 05:11:47;;;;;;;1.53;0.60;;;10.50;99.90;;;;;;5050879;28;20459;-70
2021/11/07 05:14:13;;;;;;;1.10;0.67;;;10.50;99.90;;;;;;5050875;28;20198;-71
2021/11/07 05:16:39;;;;;;;0.80;0.70;;;10.50;99.90;;;;;;5049815;28;20425;-69
2021/11/07 05:19:04;;;;;;;0.70;0.50;;;10.50;99.90;;;;;;5048074;28;20540;-70
2021/11/07 05:21:30;;;;;;;0.70;0.60;;;10.60;99.90;;;;;;5051626;28;20179;-73
2021/11/07 05:23:56;;;;;;;2.10;1.27;;;10.50;99.90;;;;;;5050329;28;20228;-72
2021/11/07 05:26:22;;;;;;;0.93;0.73;;;10.50;99.90;;;;;;5054824;28;20525;-71
2021/11/07 05:28:48;;;;;;;0.70;0.50;;;10.60;99.90;;;;;;5031889;28;20504;-71
2021/11/07 05:31:14;;;;;;;0.70;0.57;;;10.60;99.90;;;;;;5046510;28;20199;-71
2021/11/07 05:33:40;;;;;;;0.70;0.50;;;10.60;99.90;;;;;;5050498;28;21010;-71
2021/11/07 05:36:06;;;;;;;1.00;0.90;;;10.60;99.90;;;;;;5050495;28;20254;-69
2021/11/07 05:38:32;;;;;;;0.90;0.67;;;10.60;99.90;;;;;;5047033;28;20540;-72
2021/11/07 05:40:57;;;;;;;0.80;0.70;;;10.60;99.90;;;;;;5051071;28;20863;-71
2021/11/07 05:43:23;;;;;;;0.90;0.60;;;10.60;99.90;;;;;;5051177;28;20543;-71
2021/11/07 05:45:50;;;;;;;1.00;1.00;;;10.60;99.90;;;;;;5048159;28;20189;-71
2021/11/07 05:48:16;;;;;;;0.70;0.50;;;10.60;99.90;;;;;;5051531;28;20453;-70
2021/11/07 05:50:44;;;;;;;0.70;0.50;;;10.70;99.90;;;;;;5050971;28;20853;-70
2021/11/07 05:53:09;;;;;;;0.83;0.70;;;10.60;99.90;;;;;;5050652;28;20429;-71
2021/11/07 05:55:36;;;;;;;0.70;0.60;;;10.70;99.90;;;;;;5047904;28;20436;-71
2021/11/07 05:58:03;;;;;;;1.50;1.40;;;10.70;99.90;;;;;;5050226;28;20210;-71
2021/11/07 06:00:29;;;;;;;1.07;0.70;;;10.70;99.90;;;;;;5051026;28;20421;-72
2021/11/07 06:02:55;;;;;;;1.10;0.80;;;10.70;99.90;;;;;;5051702;28;20504;-71
2021/11/07 06:05:21;;;;;;;1.17;1.07;;;10.70;99.90;;;;;;5048561;28;20440;-69
2021/11/07 06:07:47;;;;;;;1.10;1.00;;;10.70;99.90;;;;;;5048992;28;20817;-70
2021/11/07 06:10:14;;;;;;;1.20;0.67;;;10.70;99.90;;;;;;5048833;28;20230;-71
2021/11/07 06:12:40;;;;;;;1.03;1.00;;;10.70;99.90;;;;;;5049991;28;20421;-70
2021/11/07 06:15:07;;;;;;;0.90;0.60;;;10.70;99.90;;;;;;5049603;28;20525;-72
2021/11/07 06:17:33;;;;;;;0.80;0.80;;;10.70;99.90;;;;;;5051179;28;20484;-70
2021/11/07 06:19:59;;;;;;;2.40;2.30;;;10.70;99.90;;;;;;5051282;28;20437;-71
2021/11/07 06:22:24;;;;;;;1.07;0.97;;;10.70;99.90;;;;;;5050586;28;20512;-71
2021/11/07 06:24:50;;;;;;;0.80;0.80;;;10.70;99.90;;;;;;5050171;28;20675;-71
2021/11/07 06:27:16;;;;;;;0.80;0.77;;;10.70;99.90;;;;;;5047266;28;20667;-71
2021/11/07 06:29:43;;;;;;;0.70;0.50;;;10.70;99.90;;;;;;5050371;28;20453;-72
2021/11/07 06:32:09;;;;;;;1.47;0.90;;;10.70;99.90;;;;;;5049614;28;20175;-70
2021/11/07 06:34:37;;;;;;;0.97;0.67;;;10.70;99.90;;;;;;5049513;28;20432;-72
2021/11/07 06:37:07;;;;;;;0.80;0.60;;;10.70;99.90;;;;;;5047706;28;20439;-71
2021/11/07 06:39:33;;;;;;;1.10;0.80;;;10.70;99.90;;;;;;5070472;28;20451;-72
2021/11/07 06:41:58;;;;;;;0.70;0.50;;;10.80;99.90;;;;;;5053123;28;20436;-71
2021/11/07 06:44:24;;;;;;;1.23;0.73;;;10.80;99.90;;;;;;5054357;28;20676;-70
2021/11/07 06:46:49;;;;;;;0.70;0.60;;;10.80;99.90;;;;;;5051460;28;20521;-69
2021/11/07 06:49:15;;;;;;;1.10;0.80;;;10.90;99.90;;;;;;5053428;28;20265;-70
2021/11/07 06:51:44;;;;;;;1.00;0.80;;;10.90;99.90;;;;;;5052459;28;20222;-71
2021/11/07 06:54:10;;;;;;;0.70;0.50;;;10.90;99.90;;;;;;5054131;28;20187;-69
2021/11/07 06:56:36;;;;;;;0.97;0.97;;;10.90;99.90;;;;;;5050544;28;20523;-71
2021/11/07 06:59:03;;;;;;;0.83;0.70;;;10.90;99.90;;;;;;5053413;28;20489;-71
2021/11/07 07:01:29;;;;;;;0.90;0.90;;;10.90;99.90;;;;;;5053387;28;20209;-70
2021/11/07 07:03:54;;;;;;;1.27;1.10;;;10.90;99.90;;;;;;5054242;28;20406;-70
2021/11/07 07:06:20;;;;;;;0.77;0.63;;;10.90;99.90;;;;;;5049498;28;20224;-71
2021/11/07 07:08:52;;;;;;;1.13;0.70;;;10.90;99.90;;;;;;5052769;28;20655;-71
2021/11/07 07:11:27;;;;;;;0.70;0.50;;;11.00;99.90;;;;;;5052147;28;20236;-72
2021/11/07 07:14:08;;;;;;;0.70;0.50;;;11.00;99.90;;;;;;5054598;28;20418;-70
2021/11/07 07:16:50;;;;;;;1.93;0.80;;;11.00;99.90;;;;;;5052792;28;20429;-71
2021/11/07 07:29:50;;;;;;;0.80;0.70;;;11.00;99.90;;;;;;5053078;28;20962;-72
2021/11/07 07:35:03;;;;;;;0.80;0.70;;;11.10;99.90;;;;;;5050363;28;20425;-72
2021/11/07 07:37:29;;;;;;;0.70;0.60;;;11.10;99.90;;;;;;5052965;28;20817;-72
2021/11/07 07:39:55;;;;;;;0.70;0.50;;;11.10;99.90;;;;;;5052363;28;20421;-72
2021/11/07 07:42:21;;;;;;;1.23;0.80;;;11.10;99.90;;;;;;5050511;28;20265;-71
2021/11/07 07:44:50;;;;;;;0.80;0.70;;;11.10;99.90;;;;;;5052078;28;20175;-71
2021/11/07 07:47:16;;;;;;;0.70;0.60;;;11.10;99.90;;;;;;5050596;28;20981;-72
2021/11/07 07:49:42;;;;;;;0.70;0.67;;;11.10;99.90;;;;;;5050933;28;20563;-70
2021/11/07 07:52:07;;;;;;;1.57;1.10;;;11.10;99.90;;;;;;5051257;28;20175;-71
2021/11/07 07:54:33;;;;;;;0.70;0.53;;;11.10;99.90;;;;;;5052004;28;20170;-72
2021/11/07 07:56:59;;;;;;;0.80;0.60;;;11.10;99.90;;;;;;5050253;28;20240;-70
2021/11/07 07:59:25;;;;;;;0.70;0.50;;;11.10;99.90;;;;;;5053244;28;20818;-70
2021/11/07 08:01:52;;;;;;;0.93;0.83;;;11.20;99.90;;;;;;5051515;28;20265;-70
2021/11/07 08:04:18;;;;;;;1.47;1.37;;;11.20;99.90;;;;;;5052428;28;20483;-70
2021/11/07 08:06:44;;;;;;;0.93;0.70;;;11.20;99.90;;;;;;5047842;28;20498;-70
2021/11/07 08:09:09;;;;;;;0.80;0.73;;;11.30;99.90;;;;;;5052822;28;20429;-71
2021/11/07 08:11:35;;;;;;;0.90;0.77;;;11.40;99.90;;;;;;5052472;28;20170;-72
2021/11/07 08:14:01;;;;;;;1.23;1.13;;;11.40;99.90;;;;;;5051843;28;20620;-72
2021/11/07 08:16:28;;;;;;;0.80;0.60;;;11.40;99.90;;;;;;5050044;28;20175;-71
2021/11/07 08:18:53;;;;;;;0.70;0.60;;;11.40;99.90;;;;;;5050161;28;20486;-71
2021/11/07 08:21:20;;;;;;;1.07;0.70;;;11.40;99.90;;;;;;5051546;28;20433;-71
2021/11/07 08:23:53;;;;;;;1.53;1.37;;;11.60;99.90;;;;;;5052693;28;20163;-69
2021/11/07 08:26:19;;;;;;;0.70;0.50;;;11.60;99.90;;;;;;5049976;28;20437;-71
2021/11/07 08:28:45;;;;;;;0.87;0.80;;;11.60;99.90;;;;;;5050558;28;20456;-72
2021/11/07 08:31:19;;;;;;;1.23;1.13;;;11.80;99.90;;;;;;5049688;28;20543;-71
2021/11/07 08:33:45;;;;;;;0.80;0.80;;;11.70;99.90;;;;;;5049126;28;20473;-71
2021/11/07 08:36:15;;;;;;;0.73;0.60;;;11.80;99.90;;;;;;5051610;28;21024;-71
2021/11/07 08:38:54;;;;;;;0.70;0.60;;;11.90;99.90;;;;;;5052658;28;20198;-71
2021/11/07 08:41:21;;;;;;;1.17;1.07;;;11.90;99.90;;;;;;5049776;28;20519;-72
2021/11/07 09:02:56;;;;;;;0.70;0.50;;;12.30;99.90;;;;;;5052487;28;20944;-73
2021/11/07 09:05:31;;;;;;;2.40;0.60;;;12.30;99.90;;;;;;5051306;28;20397;-73
2021/11/07 09:10:29;;;;;;;1.13;1.03;;;12.40;99.90;;;;;;5050990;28;20485;-72
2021/11/07 09:12:55;;;;;;;1.23;0.87;;;12.40;99.90;;;;;;5052839;28;20770;-72
2021/11/07 09:15:23;;;;;;;0.80;0.70;;;12.50;99.90;;;;;;5052597;28;20433;-73
2021/11/07 09:17:49;;;;;;;0.90;0.90;;;12.50;99.90;;;;;;5052136;28;20453;-70
2021/11/07 09:20:24;;;;;;;0.90;0.60;;;12.60;99.90;;;;;;5049615;28;20467;-71
2021/11/07 09:22:57;;;;;;;0.70;0.50;;;12.70;99.90;;;;;;5051760;28;20509;-70
2021/11/07 09:25:45;;;;;;;1.60;0.90;;;12.70;99.90;;;;;;5049763;28;20424;-70
2021/11/07 09:28:20;;;;;;;2.00;0.70;;;12.80;99.90;;;;;;5046866;28;20544;-71
2021/11/07 09:33:29;;;;;;;0.80;0.70;;;13.00;99.90;;;;;;5049523;28;20441;-71
2021/11/07 09:38:52;;;;;;;1.47;1.37;;;13.20;99.90;;;;;;5051730;28;20413;-72
2021/11/07 09:49:15;;;;;;;0.80;0.60;;;14.30;99.90;;;;;;5050047;28;20464;-70
2021/11/07 09:51:42;;;;;;;1.00;0.90;;;14.80;99.90;;;;;;5049044;28;20438;-71
2021/11/07 09:54:10;;;;;;;2.30;2.10;;;15.00;99.90;;;;;;5046427;28;20433;-71
2021/11/07 09:56:35;;;;;;;0.70;0.50;;;15.30;99.90;;;;;;5056608;28;20527;-71
2021/11/07 09:59:02;;;;;;;1.10;0.87;;;15.50;99.90;;;;;;5041722;28;20496;-72
2021/11/07 10:01:29;;;;;;;1.43;1.13;;;15.90;99.90;;;;;;5050647;28;20736;-72
2021/11/07 10:03:56;;;;;;;0.70;0.50;;;16.10;99.90;;;;;;5050088;28;20778;-72
2021/11/07 10:06:57;;;;;;;1.30;1.13;;;16.60;99.90;;;;;;5050147;28;20465;-70
2021/11/07 10:09:40;;;;;;;3.20;3.00;;;16.60;99.90;;;;;;5049218;28;20453;-71
2021/11/07 10:12:22;;;;;;;0.70;0.50;;;16.40;99.90;;;;;;5052730;28;20429;-71
2021/11/07 10:15:00;;;;;;;2.03;1.00;;;16.10;99.90;;;;;;5053655;28;20433;-74
2021/11/07 10:17:37;;;;;;;1.30;1.20;;;15.70;99.90;;;;;;5053262;28;20900;-72
2021/11/07 10:20:18;;;;;;;0.70;0.50;;;15.30;99.90;;;;;;5052879;28;20849;-72
2021/11/07 10:22:49;;;;;;;1.10;1.00;;;15.00;99.90;;;;;;5050449;28;20421;-71
2021/11/07 10:25:19;;;;;;;0.93;0.83;;;14.60;99.90;;;;;;5050662;28;20432;-71
2021/11/07 10:27:48;;;;;;;1.13;0.90;;;14.30;99.90;;;;;;5053763;28;20426;-71
2021/11/07 10:30:30;;;;;;;1.10;0.90;;;14.10;99.90;;;;;;5053905;28;20469;-71
2021/11/07 10:33:18;;;;;;;0.80;0.80;;;13.90;99.90;;;;;;5038033;28;20433;-71
2021/11/07 10:53:01;;;;;;;0.70;0.50;;;13.70;99.90;;;;;;5006348;28;20447;-70
2021/11/07 10:55:29;;;;;;;0.70;0.60;;;13.70;99.90;;;;;;5027248;28;20406;-71
2021/11/07 10:57:59;;;;;;;1.27;0.97;;;13.70;99.90;;;;;;5053462;28;20460;-71
2021/11/07 11:00:40;;;;;;;0.70;0.50;;;13.80;99.90;;;;;;5052043;28;20539;-71
2021/11/07 11:03:09;;;;;;;1.20;1.10;;;13.80;99.90;;;;;;5053450;28;20508;-71
2021/11/07 11:05:46;;;;;;;0.80;0.60;;;13.70;99.90;;;;;;5053294;28;20966;-71
2021/11/07 11:08:20;;;;;;;0.73;0.63;;;13.60;99.90;;;;;;5053851;28;20468;-70
2021/11/07 11:11:05;;;;;;;1.90;1.13;;;13.50;99.90;;;;;;5051263;28;20548;-70
2021/11/07 11:13:49;;;;;;;0.70;0.50;;;13.40;99.90;;;;;;5052231;28;20945;-73
2021/11/07 11:24:43;;;;;;;0.70;0.60;;;13.40;99.90;;;;;;5052370;28;20964;-70
2021/11/07 11:30:02;;;;;;;1.13;1.03;;;13.40;99.90;;;;;;5053894;28;20784;-73
2021/11/07 11:32:45;;;;;;;0.70;0.50;;;13.40;99.90;;;;;;5050014;28;20444;-73
2021/11/07 11:40:25;;;;;;;2.97;2.77;;;14.20;99.90;;;;;;5051644;28;20437;-71
2021/11/07 11:42:58;;;;;;;3.37;0.90;;;14.70;99.90;;;;;;5050117;28;20849;-71
2021/11/07 11:45:27;;;;;;;1.07;1.00;;;16.00;99.90;;;;;;5053336;28;20405;-70
2021/11/07 11:59:08;;;;;;;0.80;0.70;;;17.10;99.90;;;;;;5052833;28;20453;-70
2021/11/07 12:01:41;;;;;;;0.70;0.50;;;16.30;99.90;;;;;;4991505;28;20412;-70
2021/11/07 12:04:15;;;;;;;0.80;0.70;;;15.60;99.90;;;;;;5048781;28;20480;-70
2021/11/07 12:06:52;;;;;;;0.70;0.60;;;14.90;99.90;;;;;;5049465;28;20420;-71
2021/11/07 12:09:55;;;;;;;0.70;0.50;;;14.60;99.90;;;;;;5051275;28;20937;-71
2021/11/07 12:12:32;;;;;;;2.27;1.70;;;14.20;99.90;;;;;;5052110;28;20788;-70
2021/11/07 12:15:11;;;;;;;0.80;0.63;;;13.90;99.90;;;;;;5052482;28;20412;-71
2021/11/07 12:17:40;;;;;;;2.63;1.03;;;13.50;99.90;;;;;;5051658;28;20506;-71
2021/11/07 12:20:29;;;;;;;0.70;0.57;;;13.40;99.90;;;;;;5052814;28;20405;-71
2021/11/07 12:23:35;;;;;;;2.67;1.10;;;13.30;99.90;;;;;;5044009;28;20433;-71
2021/11/07 12:26:30;;;;;;;0.80;0.70;;;13.10;99.90;;;;;;5050625;28;20433;-72
2021/11/07 12:28:55;;;;;;;0.70;0.50;;;13.10;99.90;;;;;;5051478;28;20877;-72
2021/11/07 12:31:21;;;;;;;0.70;0.60;;;13.10;99.90;;;;;;5050674;28;20473;-72
2021/11/07 12:34:05;;;;;;;0.70;0.50;;;13.20;99.90;;;;;;5045062;28;20274;-70
2021/11/07 12:41:43;;;;;;;0.80;0.57;;;13.80;99.90;;;;;;5043410;28;20436;-70
2021/11/07 12:44:21;;;;;;;0.80;0.70;;;14.00;99.90;;;;;;5043502;28;20429;-70
2021/11/07 12:46:58;;;;;;;0.70;0.50;;;14.10;99.90;;;;;;5051008;28;20716;-69
2021/11/07 12:49:29;;;;;;;0.73;0.50;;;14.30;99.90;;;;;;5049879;28;20985;-70
2021/11/07 12:51:59;;;;;;;1.10;0.70;;;14.40;99.90;;;;;;5051086;28;20409;-70
2021/11/07 12:54:24;;;;;;;0.73;0.60;;;14.60;99.90;;;;;;5050123;28;20440;-70
2021/11/07 12:57:09;;;;;;;0.70;0.50;;;14.70;99.90;;;;;;5048864;28;20445;-69
2021/11/07 12:59:41;;;;;;;0.80;0.73;;;14.80;99.90;;;;;;5045054;28;20175;-70
2021/11/07 13:02:31;;;;;;;0.70;0.53;;;14.90;99.90;;;;;;5032369;28;20501;-70
2021/11/07 13:05:15;;;;;;;1.30;0.80;;;15.00;99.90;;;;;;5060511;28;20958;-70
2021/11/07 13:07:54;;;;;;;0.70;0.60;;;14.90;99.90;;;;;;5032402;28;20509;-70
2021/11/07 13:10:28;;;;;;;1.03;0.73;;;14.40;99.90;;;;;;5032600;28;20496;-70
2021/11/07 13:13:01;;;;;;;0.80;0.70;;;14.30;99.90;;;;;;5049358;28;20428;-71
2021/11/07 13:15:47;;;;;;;0.70;0.50;;;14.10;99.90;;;;;;5048747;28;20432;-71
2021/11/07 13:29:35;;;;;;;0.70;0.50;;;14.00;99.90;;;;;;5048290;28;20444;-70
2021/11/07 13:34:37;;;;;;;0.70;0.57;;;13.80;99.90;;;;;;5049566;28;20433;-70
2021/11/07 13:37:05;;;;;;;0.70;0.50;;;14.10;99.90;;;;;;5048851;28;20465;-70
2021/11/07 13:39:34;;;;;;;0.70;0.50;;;14.70;99.90;;;;;;5050995;28;20429;-70
2021/11/07 13:42:09;;;;;;;1.37;0.77;;;15.40;99.90;;;;;;5050270;28;20935;-70
2021/11/07 13:44:56;;;;;;;1.43;0.93;;;16.40;99.90;;;;;;5054353;28;20421;-70
2021/11/07 13:47:30;;;;;;;0.70;0.50;;;16.90;99.90;;;;;;5054140;28;20599;-70
2021/11/07 13:49:56;;;;;;;1.10;1.00;;;17.80;99.90;;;;;;5055757;28;20440;-70
2021/11/07 13:52:21;;;;;;;0.70;0.50;;;18.80;99.90;;;;;;5055368;28;20420;-70
2021/11/07 13:54:47;;;;;;;0.80;0.60;;;19.70;99.90;;;;;;5055302;28;20249;-70
2021/11/07 13:57:13;;;;;;;11.90;0.80;;;19.10;99.90;;;;;;5054801;28;20285;-70
2021/11/07 13:59:43;;;;;;;1.00;0.70;;;18.80;99.90;;;;;;5055050;28;20181;-71
2021/11/07 14:02:27;;;;;;;0.70;0.60;;;18.50;99.90;;;;;;5055498;28;20409;-70
2021/11/07 14:04:55;;;;;;;0.70;0.50;;;17.40;99.90;;;;;;5055275;28;20485;-70
2021/11/07 14:07:27;;;;;;;2.53;2.43;;;16.40;99.90;;;;;;5054996;28;20464;-70
2021/11/07 14:10:06;;;;;;;0.70;0.60;;;15.90;99.90;;;;;;5054809;28;20472;-70
2021/11/07 14:12:48;;;;;;;3.77;0.77;;;15.40;99.90;;;;;;5053176;28;20806;-70
2021/11/07 14:15:29;;;;;;;0.70;0.50;;;15.20;99.90;;;;;;5054726;28;20416;-70
2021/11/07 14:18:15;;;;;;;0.70;0.50;;;15.40;99.90;;;;;;5054462;28;20519;-71
2021/11/07 14:20:50;;;;;;;0.80;0.67;;;15.40;99.90;;;;;;5053119;28;20421;-70
2021/11/07 14:23:30;;;;;;;0.80;0.60;;;15.30;99.90;;;;;;5055766;28;20448;-70
2021/11/07 14:26:22;;;;;;;1.53;1.13;;;15.80;99.90;;;;;;5055037;28;20417;-70
2021/11/07 14:28:53;;;;;;;1.10;0.70;;;15.90;99.90;;;;;;5055351;28;20449;-70
2021/11/07 14:31:27;;;;;;;0.80;0.60;;;15.40;99.90;;;;;;5055327;28;20879;-70
2021/11/07 14:39:10;;;;;;;0.70;0.50;;;14.30;99.90;;;;;;5055417;28;20452;-70
2021/11/07 14:41:52;;;;;;;0.70;0.50;;;14.30;99.90;;;;;;5054483;28;20413;-70
2021/11/07 14:44:38;;;;;;;0.70;0.50;;;14.40;99.90;;;;;;5055021;28;20410;-70
2021/11/07 14:50:26;;;;;;;0.70;0.50;;;14.80;99.90;;;;;;5031537;28;20452;-70
2021/11/07 14:53:12;;;;;;;0.70;0.50;;;14.80;99.90;;;;;;5055481;28;20814;-70
2021/11/07 15:00:48;;;;;;;0.70;0.50;;;13.20;99.90;;;;;;5055376;28;20191;-70
2021/11/07 15:03:21;;;;;;;1.53;1.43;;;12.80;99.90;;;;;;5055033;28;20406;-70
2021/11/07 15:06:09;;;;;;;0.70;0.50;;;12.50;99.90;;;;;;5054724;28;20813;-70
2021/11/07 15:08:47;;;;;;;1.40;1.07;;;12.20;99.90;;;;;;5070550;28;20819;-70
2021/11/07 15:14:12;;;;;;;2.20;0.97;;;11.70;99.90;;;;;;5054511;28;20417;-70
2021/11/07 15:16:40;;;;;;;0.70;0.50;;;11.50;99.90;;;;;;5054336;28;20413;-70
2021/11/07 15:24:09;;;;;;;0.70;0.50;;;11.20;99.90;;;;;;5054534;28;20179;-69
2021/11/07 15:26:54;;;;;;;0.70;0.50;;;11.20;99.90;;;;;;5053965;28;20417;-70
2021/11/07 15:29:23;;;;;;;0.80;0.80;;;11.10;99.90;;;;;;5034404;28;20883;-70
2021/11/07 15:32:12;;;;;;;0.70;0.50;;;11.00;99.90;;;;;;5034791;28;20844;-70
2021/11/07 15:34:40;;;;;;;0.70;0.50;;;10.90;99.90;;;;;;5046548;28;20420;-69